Ide Min — PC8366 — position and weather

sailwx.info

Track history (hours):
 
Tides and Currents Weather Stations Pressure Air Temp Water Temp Dewpoint Dewpoint Depression Visibility Wind Speed Wind Dir Waves Ship Positions

Ide Min (Netherlands)

Ship's website: http://www.idemin.nl/english/english.html

Last reported at 2017-Jul-27 22:23 UTC. Time now 2017-Jul-28 06:39 UTC.
Position N 54°37' E 010°02'.

Length 40 m; draft 2.4 m.

MMSI: 244537000.

Date/timePositionNaut miles runAvg speedWind from/ knotsBaromVisibWave heightAir tempDewpointWater temp
2017-Jul-27 22:23N 54°37' E 010°02'0 0.0
2017-Jul-27 19:05N 54°37' E 010°02'0 0.0
2017-Jul-27 17:59N 54°37' E 010°02'0 0.0
2017-Jul-27 15:38N 54°37' E 010°02'0 0.2
2017-Jul-27 15:27N 54°37' E 010°02'26 2.9
2017-Jul-27 06:27N 55°03' E 010°10'0 0.0
2017-Jul-27 06:00N 55°03' E 010°10'0 0.0
2017-Jul-27 05:30N 55°03' E 010°10'0 0.0
2017-Jul-27 04:54N 55°03' E 010°10'0 0.0
2017-Jul-27 04:09N 55°03' E 010°10'0 0.0
2017-Jul-27 04:00N 55°03' E 010°10'0 0.0
2017-Jul-27 03:18N 55°03' E 010°10'9 0.2
2017-Jul-25 08:08N 54°57' E 010°21'2 6.8
2017-Jul-25 07:50N 54°56' E 010°24'2 0.2
2017-Jul-24 20:07N 54°53' E 010°25'3 0.4
2017-Jul-24 12:59N 54°56' E 010°23'2 3.0
2017-Jul-24 12:19N 54°57' E 010°20'0 0.3
2017-Jul-24 11:55N 54°57' E 010°20'0 0.2
2017-Jul-24 11:30N 54°57' E 010°20'1 1.0
2017-Jul-24 10:55N 54°56' E 010°20'1 1.5
2017-Jul-24 10:29N 54°57' E 010°20'1 2.7
2017-Jul-24 10:00N 54°58' E 010°21'2 3.8
2017-Jul-24 09:22N 55°01' E 010°21'1 3.6
2017-Jul-24 09:00N 55°02' E 010°21'1 2.5
2017-Jul-24 08:30N 55°01' E 010°19'0 0.2
2017-Jul-24 06:26N 55°01' E 010°19'0 0.0
2017-Jul-24 05:38N 55°01' E 010°19'0 0.0
2017-Jul-24 05:29N 55°01' E 010°19'0 0.0
2017-Jul-24 04:56N 55°01' E 010°19'0 0.0
2017-Jul-23 18:14N 55°01' E 010°19'0 0.0
2017-Jul-23 16:29N 55°01' E 010°19'0 0.6
2017-Jul-23 16:00N 55°01' E 010°19'4 3.3
2017-Jul-23 14:53N 55°02' E 010°13'5 5.9
2017-Jul-23 13:59N 54°57' E 010°10'  
Track history (hours):
 
Tides and Currents Weather Stations Pressure Air Temp Water Temp Dewpoint Dewpoint Depression Visibility Wind Speed Wind Dir Waves Ship Positions

Ide Min (Netherlands)

Ship's website: http://www.idemin.nl/english/english.html

Last reported at 2017-Jul-27 22:23 UTC. Time now 2017-Jul-28 06:39 UTC.
Position N 54°37' E 010°02'.

Length 40 m; draft 2.4 m.

MMSI: 244537000.

Date/timePositionNaut miles runAvg speedWind from/ knotsBaromVisibWave heightAir tempDewpointWater temp
2017-Jul-27 22:23N 54°37' E 010°02'0 0.0
2017-Jul-27 19:05N 54°37' E 010°02'0 0.0
2017-Jul-27 17:59N 54°37' E 010°02'0 0.0
2017-Jul-27 15:38N 54°37' E 010°02'0 0.2
2017-Jul-27 15:27N 54°37' E 010°02'26 2.9
2017-Jul-27 06:27N 55°03' E 010°10'0 0.0
2017-Jul-27 06:00N 55°03' E 010°10'0 0.0
2017-Jul-27 05:30N 55°03' E 010°10'0 0.0
2017-Jul-27 04:54N 55°03' E 010°10'0 0.0
2017-Jul-27 04:09N 55°03' E 010°10'0 0.0
2017-Jul-27 04:00N 55°03' E 010°10'0 0.0
2017-Jul-27 03:18N 55°03' E 010°10'9 0.2
2017-Jul-25 08:08N 54°57' E 010°21'2 6.8
2017-Jul-25 07:50N 54°56' E 010°24'2 0.2
2017-Jul-24 20:07N 54°53' E 010°25'3 0.4
2017-Jul-24 12:59N 54°56' E 010°23'2 3.0
2017-Jul-24 12:19N 54°57' E 010°20'0 0.3
2017-Jul-24 11:55N 54°57' E 010°20'0 0.2
2017-Jul-24 11:30N 54°57' E 010°20'1 1.0
2017-Jul-24 10:55N 54°56' E 010°20'1 1.5
2017-Jul-24 10:29N 54°57' E 010°20'1 2.7
2017-Jul-24 10:00N 54°58' E 010°21'2 3.8
2017-Jul-24 09:22N 55°01' E 010°21'1 3.6
2017-Jul-24 09:00N 55°02' E 010°21'1 2.5
2017-Jul-24 08:30N 55°01' E 010°19'0 0.2
2017-Jul-24 06:26N 55°01' E 010°19'0 0.0
2017-Jul-24 05:38N 55°01' E 010°19'0 0.0
2017-Jul-24 05:29N 55°01' E 010°19'0 0.0
2017-Jul-24 04:56N 55°01' E 010°19'0 0.0
2017-Jul-23 18:14N 55°01' E 010°19'0 0.0
2017-Jul-23 16:29N 55°01' E 010°19'0 0.6
2017-Jul-23 16:00N 55°01' E 010°19'4 3.3
2017-Jul-23 14:53N 55°02' E 010°13'5 5.9
2017-Jul-23 13:59N 54°57' E 010°10'  

Dump ship's entire track history